createdAt,value
2022-12-16T00:02:18.254Z,14.00
2022-12-16T00:05:06.064Z,14.32
2022-12-16T00:07:52.776Z,13.95
2022-12-16T00:10:54.959Z,13.50
2022-12-16T00:13:43.502Z,14.40
2022-12-16T00:16:30.470Z,13.75
2022-12-16T00:19:17.239Z,12.05
2022-12-16T00:22:04.038Z,12.63
2022-12-16T00:24:50.973Z,13.88
2022-12-16T00:27:37.873Z,13.90
2022-12-16T00:30:26.044Z,13.75
2022-12-16T00:33:13.209Z,14.02
2022-12-16T00:36:00.012Z,13.90
2022-12-16T00:38:46.636Z,13.43
2022-12-16T00:41:33.393Z,12.57
2022-12-16T00:44:20.249Z,12.50
2022-12-16T00:47:08.257Z,13.98
2022-12-16T00:49:57.051Z,13.52
2022-12-16T00:52:44.165Z,12.32
2022-12-16T00:55:31.122Z,11.40
2022-12-16T00:58:18.276Z,13.50
2022-12-16T01:01:05.797Z,13.38
2022-12-16T01:03:57.296Z,13.23
2022-12-16T01:06:44.039Z,12.80
2022-12-16T01:09:30.695Z,12.57
2022-12-16T01:12:17.542Z,17.95
2022-12-16T01:15:06.876Z,16.15
2022-12-16T01:17:53.656Z,16.73
2022-12-16T01:20:43.335Z,15.82
2022-12-16T01:23:30.389Z,13.23
2022-12-16T01:26:19.004Z,11.75
2022-12-16T01:29:05.856Z,11.90
2022-12-16T01:31:52.651Z,11.25
2022-12-16T01:34:39.459Z,12.10
2022-12-16T01:37:27.844Z,11.75
2022-12-16T01:40:19.450Z,13.35
2022-12-16T01:43:11.513Z,11.85
2022-12-16T01:46:01.617Z,13.82
2022-12-16T01:48:52.339Z,11.02
2022-12-16T01:51:46.081Z,12.75
2022-12-16T01:54:41.023Z,13.70
2022-12-16T01:57:34.624Z,13.23
2022-12-16T02:00:21.583Z,15.88
2022-12-16T02:03:09.112Z,11.10
2022-12-16T02:05:56.635Z,13.60
2022-12-16T02:08:43.356Z,11.43
2022-12-16T02:12:04.504Z,13.90
2022-12-16T02:15:14.667Z,12.75
2022-12-16T02:18:11.920Z,10.73
2022-12-16T02:21:32.991Z,12.85
2022-12-16T02:24:46.422Z,12.48
2022-12-16T02:27:47.079Z,12.60
2022-12-16T02:31:06.871Z,13.90
2022-12-16T02:34:06.918Z,11.82
2022-12-16T02:37:06.859Z,12.60
2022-12-16T02:40:00.121Z,12.40
2022-12-16T02:42:50.806Z,13.23
2022-12-16T02:45:39.954Z,12.57
2022-12-16T02:48:28.299Z,10.68
2022-12-16T02:51:15.110Z,12.68
2022-12-16T02:54:01.864Z,12.23
2022-12-16T02:57:00.254Z,12.85
2022-12-16T02:59:55.532Z,9.35
2022-12-16T03:02:49.653Z,10.75
2022-12-16T03:05:41.671Z,12.07
2022-12-16T03:08:34.137Z,10.73
2022-12-16T03:11:21.519Z,10.70
2022-12-16T03:14:11.934Z,12.55
2022-12-16T03:17:00.298Z,11.23
2022-12-16T03:19:54.587Z,11.90
2022-12-16T03:22:45.829Z,11.75
2022-12-16T03:25:35.730Z,13.45
2022-12-16T03:28:34.020Z,11.70
2022-12-16T03:31:31.222Z,11.68
2022-12-16T03:34:26.789Z,11.48
2022-12-16T03:37:15.581Z,11.10
2022-12-16T03:40:07.148Z,12.45
2022-12-16T03:42:55.245Z,10.75
2022-12-16T03:45:44.148Z,11.75
2022-12-16T03:48:31.217Z,12.50
2022-12-16T03:51:18.619Z,14.55
2022-12-16T03:54:05.638Z,12.13
2022-12-16T03:56:54.385Z,11.90
2022-12-16T03:59:41.222Z,11.05
2022-12-16T04:02:28.252Z,11.02
2022-12-16T04:05:15.492Z,10.57
2022-12-16T04:08:02.445Z,10.98
2022-12-16T04:11:09.969Z,9.27
2022-12-16T04:14:15.950Z,11.15
2022-12-16T04:17:20.468Z,12.07
2022-12-16T04:20:32.627Z,14.05
2022-12-16T04:23:37.720Z,12.65
2022-12-16T04:26:24.627Z,11.40
2022-12-16T04:29:13.200Z,11.02
2022-12-16T04:32:00.648Z,12.35
2022-12-16T04:34:46.434Z,10.07
2022-12-16T04:37:50.467Z,11.27
2022-12-16T04:40:54.524Z,9.63
2022-12-16T04:43:59.292Z,10.75
2022-12-16T04:47:05.372Z,9.48
2022-12-16T04:50:09.661Z,12.45
2022-12-16T04:53:13.743Z,10.90
2022-12-16T04:56:17.939Z,9.60
2022-12-16T04:59:22.116Z,10.02
2022-12-16T05:02:27.752Z,10.65
2022-12-16T05:05:31.780Z,9.95
2022-12-16T05:08:36.088Z,11.30
2022-12-16T05:11:40.383Z,9.18
2022-12-16T05:14:44.431Z,12.88
2022-12-16T05:17:49.983Z,9.18
2022-12-16T05:20:54.310Z,11.23
2022-12-16T05:23:59.418Z,10.93
2022-12-16T05:27:03.483Z,10.80
2022-12-16T05:30:07.823Z,10.30
2022-12-16T05:33:13.325Z,11.38
2022-12-16T05:36:17.711Z,12.88
2022-12-16T05:39:22.446Z,11.25
2022-12-16T05:42:28.902Z,10.98
2022-12-16T05:45:33.127Z,10.80
2022-12-16T05:48:40.982Z,9.73
2022-12-16T05:51:48.595Z,8.38
2022-12-16T05:54:52.779Z,11.40
2022-12-16T05:57:56.857Z,8.75
2022-12-16T06:01:01.331Z,11.38
2022-12-16T06:04:07.243Z,8.35
2022-12-16T06:07:11.528Z,9.32
2022-12-16T06:10:18.904Z,10.18
2022-12-16T06:13:23.342Z,8.93
2022-12-16T06:16:27.663Z,9.50
2022-12-16T06:19:33.045Z,10.75
2022-12-16T06:22:37.325Z,8.68
2022-12-16T06:25:41.497Z,10.93
2022-12-16T06:28:46.301Z,7.63
2022-12-16T06:31:50.292Z,10.35
2022-12-16T06:34:55.771Z,8.57
2022-12-16T06:37:59.919Z,9.23
2022-12-16T06:41:03.937Z,11.82
2022-12-16T06:44:08.068Z,9.63
2022-12-16T06:47:17.868Z,9.07
2022-12-16T06:50:24.694Z,8.48
2022-12-16T06:53:28.794Z,9.98
2022-12-16T06:56:33.152Z,10.38
2022-12-16T06:59:37.436Z,10.80
2022-12-16T07:02:41.884Z,8.10
2022-12-16T07:05:47.121Z,9.68
2022-12-16T07:08:51.394Z,8.30
2022-12-16T07:11:55.495Z,9.68
2022-12-16T07:15:00.108Z,10.88
2022-12-16T07:18:04.876Z,11.60
2022-12-16T07:21:10.354Z,9.93
2022-12-16T07:24:14.411Z,11.55
2022-12-16T07:27:18.719Z,12.40
2022-12-16T07:30:24.904Z,8.82
2022-12-16T07:33:25.708Z,12.00
2022-12-16T07:36:31.196Z,12.88
2022-12-16T07:39:35.827Z,11.13
2022-12-16T07:42:40.001Z,10.38
2022-12-16T07:45:45.422Z,10.60
2022-12-16T07:48:49.264Z,11.38
2022-12-16T07:51:55.158Z,13.27
2022-12-16T07:54:59.952Z,13.60
2022-12-16T07:58:08.690Z,14.50
2022-12-16T08:01:13.112Z,13.80
2022-12-16T08:04:17.107Z,12.43
2022-12-16T08:07:23.081Z,12.52
2022-12-16T08:10:27.773Z,13.85
2022-12-16T08:13:37.528Z,13.30
2022-12-16T08:16:38.328Z,14.38
2022-12-16T08:19:44.941Z,14.48
2022-12-16T08:22:50.285Z,15.55
2022-12-16T08:29:43.179Z,17.50
2022-12-16T08:32:43.847Z,13.50
2022-12-16T08:35:48.187Z,14.40
2022-12-16T08:38:53.660Z,14.98
2022-12-16T08:41:59.836Z,16.42
2022-12-16T08:45:03.932Z,16.30
2022-12-16T08:48:08.513Z,16.92
2022-12-16T08:51:12.549Z,16.15
2022-12-16T08:54:18.279Z,15.57
2022-12-16T08:57:22.371Z,15.18
2022-12-16T09:00:28.320Z,16.90
2022-12-16T09:03:32.944Z,19.83
2022-12-16T09:06:40.409Z,18.73
2022-12-16T09:09:46.906Z,17.67
2022-12-16T09:12:51.010Z,17.92
2022-12-16T09:15:56.048Z,17.77
2022-12-16T09:19:00.495Z,18.63
2022-12-16T09:22:05.008Z,17.35
2022-12-16T09:25:10.357Z,17.75
2022-12-16T09:28:15.232Z,18.58
2022-12-16T09:31:19.329Z,18.27
2022-12-16T09:34:24.107Z,17.10
2022-12-16T09:37:29.520Z,17.70
2022-12-16T09:40:36.479Z,19.40
2022-12-16T09:43:58.873Z,19.85
2022-12-16T09:47:13.546Z,17.88
2022-12-16T09:50:18.160Z,19.10
2022-12-16T09:53:25.871Z,18.17
2022-12-16T09:56:36.525Z,25.13
2022-12-16T09:59:44.479Z,24.80
2022-12-16T10:02:48.709Z,28.45
2022-12-16T10:06:02.698Z,33.58
2022-12-16T10:09:13.743Z,33.78
2022-12-16T10:12:31.092Z,30.25
2022-12-16T10:15:47.889Z,22.55
2022-12-16T10:19:04.928Z,23.00
2022-12-16T10:22:16.576Z,22.07
2022-12-16T10:25:32.016Z,21.80
2022-12-16T10:28:43.398Z,23.55
2022-12-16T10:31:49.283Z,20.73
2022-12-16T10:34:57.325Z,21.27
2022-12-16T10:38:03.809Z,21.27
2022-12-16T10:41:12.558Z,20.70
2022-12-16T10:44:20.648Z,21.67
2022-12-16T10:47:26.284Z,22.63
2022-12-16T10:50:34.564Z,20.70
2022-12-16T10:53:45.970Z,22.45
2022-12-16T10:57:09.010Z,21.08
2022-12-16T11:00:29.330Z,21.03
2022-12-16T11:03:40.142Z,21.47
2022-12-16T11:06:47.544Z,21.47
2022-12-16T11:09:53.529Z,20.50
2022-12-16T11:12:58.928Z,19.20
2022-12-16T11:16:05.400Z,21.53
2022-12-16T11:19:11.954Z,22.63
2022-12-16T11:22:25.732Z,21.60
2022-12-16T11:25:35.645Z,21.87
2022-12-16T11:28:42.194Z,21.77
2022-12-16T11:32:01.228Z,21.67
2022-12-16T11:35:15.178Z,23.07
2022-12-16T11:38:25.403Z,21.53
2022-12-16T11:41:42.604Z,23.53
2022-12-16T11:44:49.128Z,23.57
2022-12-16T11:48:00.310Z,23.40
2022-12-16T11:51:09.977Z,20.77
2022-12-16T11:54:30.120Z,24.47
2022-12-16T11:57:41.344Z,21.73
2022-12-16T12:00:45.509Z,24.03
2022-12-16T12:04:01.354Z,22.43
2022-12-16T12:07:21.626Z,20.80
2022-12-16T12:10:40.880Z,21.37
2022-12-16T12:14:00.032Z,23.90
2022-12-16T12:17:20.211Z,24.70
2022-12-16T12:20:48.458Z,22.63
2022-12-16T12:24:05.710Z,20.83
2022-12-16T12:27:16.690Z,24.70
2022-12-16T12:30:24.532Z,22.30
2022-12-16T12:33:46.381Z,23.90
2022-12-16T12:36:57.481Z,22.27
2022-12-16T12:40:05.753Z,20.07
2022-12-16T12:43:25.994Z,22.93
2022-12-16T12:46:35.660Z,22.47
2022-12-16T12:49:48.438Z,23.37
2022-12-16T12:53:14.471Z,24.17
2022-12-16T12:56:27.840Z,22.30
2022-12-16T12:59:39.136Z,24.50
2022-12-16T13:02:47.843Z,24.90
2022-12-16T13:05:56.584Z,23.60
2022-12-16T13:09:12.507Z,23.80
2022-12-16T13:12:45.681Z,24.53
2022-12-16T13:15:54.809Z,22.87
2022-12-16T13:18:59.009Z,20.87
2022-12-16T13:22:06.607Z,24.27
2022-12-16T13:25:12.475Z,20.80
2022-12-16T13:28:32.283Z,22.80
2022-12-16T13:31:39.287Z,23.50
2022-12-16T13:34:48.053Z,25.10
2022-12-16T13:37:53.236Z,23.90
2022-12-16T13:41:11.981Z,24.23
2022-12-16T13:44:18.371Z,21.10
2022-12-16T13:47:50.268Z,22.50
2022-12-16T13:50:56.884Z,24.90
2022-12-16T13:54:06.230Z,24.03
2022-12-16T13:57:12.047Z,22.23
2022-12-16T14:00:18.503Z,23.77
2022-12-16T14:03:28.140Z,23.23
2022-12-16T14:06:37.696Z,22.07
2022-12-16T14:09:53.737Z,25.23
2022-12-16T14:13:11.215Z,24.23
2022-12-16T14:16:23.647Z,24.40
2022-12-16T14:19:42.773Z,23.37
2022-12-16T14:23:10.713Z,22.80
2022-12-16T14:26:24.779Z,22.80
2022-12-16T14:29:38.025Z,23.27
2022-12-16T14:32:47.693Z,20.77
2022-12-16T14:35:51.843Z,20.83
2022-12-16T14:39:05.528Z,22.97
2022-12-16T14:42:10.277Z,23.20
2022-12-16T14:45:16.056Z,20.70
2022-12-16T14:48:20.258Z,21.37
2022-12-16T14:51:50.549Z,22.27
2022-12-16T14:54:57.490Z,22.40
2022-12-16T14:58:01.928Z,19.53
2022-12-16T15:01:15.536Z,21.40
2022-12-16T15:04:24.436Z,22.97
2022-12-16T15:07:33.580Z,20.73
2022-12-16T15:10:41.128Z,22.03
2022-12-16T15:13:48.000Z,22.67
2022-12-16T15:19:15.676Z,22.43
2022-12-16T15:20:31.538Z,20.73
2022-12-16T15:23:41.261Z,21.10
2022-12-16T15:26:49.309Z,21.33
2022-12-16T15:29:55.398Z,20.07
2022-12-16T15:33:02.408Z,21.77
2022-12-16T15:36:06.355Z,20.87
2022-12-16T15:39:10.612Z,21.17
2022-12-16T15:42:18.227Z,21.23
2022-12-16T15:45:22.856Z,19.50
2022-12-16T15:48:37.608Z,22.60
2022-12-16T15:51:48.241Z,23.23
2022-12-16T15:54:52.650Z,22.30
2022-12-16T15:57:57.838Z,21.33
2022-12-16T16:01:15.675Z,22.70
2022-12-16T16:04:21.700Z,21.73
2022-12-16T16:07:34.335Z,22.57
2022-12-16T16:10:41.549Z,20.13
2022-12-16T16:13:45.551Z,23.07
2022-12-16T16:16:49.840Z,22.30
2022-12-16T16:20:01.628Z,22.03
2022-12-16T16:23:07.800Z,22.10
2022-12-16T16:26:11.962Z,21.37
2022-12-16T16:29:17.264Z,21.20
2022-12-16T16:32:23.468Z,23.27
2022-12-16T16:35:37.696Z,20.67
2022-12-16T16:38:42.121Z,21.30
2022-12-16T16:41:46.186Z,22.83
2022-12-16T16:44:51.826Z,21.43
2022-12-16T16:47:56.902Z,22.53
2022-12-16T16:51:03.414Z,20.77
2022-12-16T16:54:08.471Z,22.30
2022-12-16T16:57:13.493Z,22.87
2022-12-16T17:00:18.564Z,20.03
2022-12-16T17:03:23.011Z,22.57
2022-12-16T17:06:28.426Z,24.07
2022-12-16T17:09:32.719Z,20.67
2022-12-16T17:12:39.001Z,20.90
2022-12-16T17:15:48.295Z,20.30
2022-12-16T17:18:52.773Z,20.20
2022-12-16T17:21:58.237Z,21.83
2022-12-16T17:25:02.400Z,21.33
2022-12-16T17:28:06.483Z,20.17
2022-12-16T17:31:16.065Z,21.07
2022-12-16T17:34:39.890Z,21.80
2022-12-16T17:37:48.140Z,21.00
2022-12-16T17:40:52.275Z,19.67
2022-12-16T17:43:56.469Z,21.27
2022-12-16T17:47:00.775Z,20.67
2022-12-16T17:50:16.315Z,21.03
2022-12-16T17:53:22.121Z,21.47
2022-12-16T17:56:22.984Z,19.67
2022-12-16T17:59:27.526Z,22.03
2022-12-16T18:02:32.196Z,19.73
2022-12-16T18:05:42.505Z,20.00
2022-12-16T18:08:51.584Z,20.00
2022-12-16T18:11:56.617Z,20.63
2022-12-16T18:15:04.140Z,21.33
2022-12-16T18:18:09.961Z,19.53
2022-12-16T18:21:15.608Z,21.70
2022-12-16T18:24:24.388Z,18.97
2022-12-16T18:27:28.536Z,21.97
2022-12-16T18:30:33.836Z,19.87
2022-12-16T18:33:37.958Z,20.10
2022-12-16T18:36:42.056Z,20.60
2022-12-16T18:39:47.483Z,22.17
2022-12-16T18:42:51.579Z,19.63
2022-12-16T18:45:55.776Z,21.77
2022-12-16T18:48:59.790Z,23.40
2022-12-16T18:52:04.019Z,23.77
2022-12-16T18:55:12.036Z,21.40
2022-12-16T18:58:49.164Z,19.70
2022-12-16T19:01:42.161Z,22.20
2022-12-16T19:04:46.466Z,21.60
2022-12-16T19:07:50.598Z,23.50
2022-12-16T19:10:56.097Z,23.20
2022-12-16T19:14:00.536Z,22.27
2022-12-16T19:17:04.649Z,22.63
2022-12-16T19:20:08.990Z,21.97
2022-12-16T19:23:13.129Z,22.87
2022-12-16T19:26:19.403Z,22.47
2022-12-16T19:29:23.741Z,22.47
2022-12-16T19:32:28.018Z,24.60
2022-12-16T19:35:32.282Z,22.83
2022-12-16T19:38:36.785Z,22.07
2022-12-16T19:41:42.857Z,22.27
2022-12-16T19:44:47.142Z,21.07
2022-12-16T19:47:51.639Z,24.27
2022-12-16T19:50:57.948Z,22.93
2022-12-16T19:54:07.425Z,21.40
2022-12-16T19:57:12.834Z,22.40
2022-12-16T20:00:17.001Z,21.23
2022-12-16T20:03:21.222Z,23.90
2022-12-16T20:06:28.351Z,22.87
2022-12-16T20:09:32.512Z,22.27
2022-12-16T20:12:38.216Z,24.17
2022-12-16T20:15:42.356Z,23.33
2022-12-16T20:18:46.453Z,24.20
2022-12-16T20:21:56.168Z,26.10
2022-12-16T20:25:16.733Z,24.47
2022-12-16T20:28:25.012Z,23.40
2022-12-16T20:31:29.500Z,24.40
2022-12-16T20:34:34.172Z,27.17
2022-12-16T20:37:46.624Z,24.63
2022-12-16T20:40:50.437Z,25.20
2022-12-16T20:43:56.374Z,24.63
2022-12-16T20:47:00.429Z,24.83
2022-12-16T20:50:04.626Z,26.23
2022-12-16T20:53:08.709Z,27.87
2022-12-16T20:56:13.450Z,28.37
2022-12-16T20:59:19.220Z,26.83
2022-12-16T21:02:26.840Z,25.13
2022-12-16T21:05:34.481Z,27.23
2022-12-16T21:08:38.499Z,27.83
2022-12-16T21:11:42.792Z,26.73
2022-12-16T21:14:48.403Z,27.20
2022-12-16T21:17:52.611Z,26.83
2022-12-16T21:20:59.692Z,26.37
2022-12-16T21:24:05.236Z,25.77
2022-12-16T21:27:09.342Z,27.67
2022-12-16T21:30:15.213Z,28.23
2022-12-16T21:33:19.220Z,26.80
2022-12-16T21:36:25.390Z,28.10
2022-12-16T21:39:29.655Z,27.27
2022-12-16T21:42:36.796Z,27.03
2022-12-16T21:45:45.159Z,25.97
2022-12-16T21:48:49.331Z,26.40
2022-12-16T21:51:53.372Z,27.13
2022-12-16T21:55:00.510Z,27.27
2022-12-16T21:58:04.885Z,27.63
2022-12-16T22:01:14.532Z,26.70
2022-12-16T22:04:18.595Z,26.40
2022-12-16T22:07:22.876Z,27.07
2022-12-16T22:10:39.136Z,28.40
2022-12-16T22:13:43.098Z,28.60
2022-12-16T22:16:48.611Z,28.10
2022-12-16T22:19:56.144Z,27.50
2022-12-16T22:23:14.997Z,28.47
2022-12-16T22:26:20.027Z,27.93
2022-12-16T22:29:24.352Z,30.07
2022-12-16T22:32:29.748Z,26.33
2022-12-16T22:35:34.473Z,28.13
2022-12-16T22:38:38.624Z,26.97
2022-12-16T22:41:42.967Z,26.07
2022-12-16T22:44:46.991Z,29.30
2022-12-16T22:47:52.624Z,27.23
2022-12-16T22:50:58.766Z,26.23
2022-12-16T22:54:03.175Z,27.50
2022-12-16T22:57:07.362Z,29.33
2022-12-16T23:00:11.622Z,26.90
2022-12-16T23:03:17.344Z,26.13
2022-12-16T23:06:21.944Z,29.20
2022-12-16T23:09:26.143Z,25.27
2022-12-16T23:12:30.364Z,26.67
2022-12-16T23:15:35.174Z,24.90
2022-12-16T23:18:40.496Z,24.80
2022-12-16T23:21:45.136Z,24.63
2022-12-16T23:24:49.934Z,25.10
2022-12-16T23:27:54.101Z,26.57
2022-12-16T23:30:58.307Z,24.23
2022-12-16T23:34:03.744Z,27.60
2022-12-16T23:37:07.896Z,24.10
2022-12-16T23:40:11.997Z,21.43
2022-12-16T23:43:16.167Z,23.30
2022-12-16T23:46:20.481Z,23.33
2022-12-16T23:49:26.865Z,24.67
2022-12-16T23:52:30.941Z,25.03
2022-12-16T23:55:35.677Z,22.03
2022-12-16T23:58:45.181Z,23.80
